sensor_id;sensor_type;location;lat;lon;timestamp;pressure;altitude;pressure_sealevel;temperature;humidity
49943;BME280;36011;53.362;58.948;2023-11-19T00:02:15;97314.41;;;-10.63;68.83
49943;BME280;36011;53.362;58.948;2023-11-19T00:05:22;97312.69;;;-10.64;69.05
49943;BME280;36011;53.362;58.948;2023-11-19T00:08:30;97324.78;;;-10.54;68.73
49943;BME280;36011;53.362;58.948;2023-11-19T00:11:34;97326.44;;;-10.56;68.72
49943;BME280;36011;53.362;58.948;2023-11-19T00:14:43;97334.16;;;-10.53;68.62
49943;BME280;36011;53.362;58.948;2023-11-19T00:17:46;97326.53;;;-10.53;68.56
49943;BME280;36011;53.362;58.948;2023-11-19T00:20:48;97325.19;;;-10.38;68.16
49943;BME280;36011;53.362;58.948;2023-11-19T00:23:54;97319.94;;;-10.45;67.69
49943;BME280;36011;53.362;58.948;2023-11-19T00:27:02;97317.84;;;-10.61;67.98
49943;BME280;36011;53.362;58.948;2023-11-19T00:30:09;97327.25;;;-10.58;68.15
49943;BME280;36011;53.362;58.948;2023-11-19T00:33:17;97341.22;;;-10.41;67.17
49943;BME280;36011;53.362;58.948;2023-11-19T00:36:19;97315.97;;;-10.68;67.64
49943;BME280;36011;53.362;58.948;2023-11-19T00:39:24;97339.25;;;-10.53;67.70
49943;BME280;36011;53.362;58.948;2023-11-19T00:42:31;97343.22;;;-10.63;67.86
49943;BME280;36011;53.362;58.948;2023-11-19T00:45:37;97339.75;;;-10.66;68.01
49943;BME280;36011;53.362;58.948;2023-11-19T00:48:44;97333.91;;;-10.64;68.02
49943;BME280;36011;53.362;58.948;2023-11-19T00:51:46;97339.59;;;-10.72;67.82
49943;BME280;36011;53.362;58.948;2023-11-19T00:54:47;97347.09;;;-10.77;68.25
49943;BME280;36011;53.362;58.948;2023-11-19T00:57:52;97349.72;;;-10.75;68.13
49943;BME280;36011;53.362;58.948;2023-11-19T01:00:53;97351.19;;;-10.83;68.36
49943;BME280;36011;53.362;58.948;2023-11-19T01:03:55;97356.97;;;-10.89;68.75
49943;BME280;36011;53.362;58.948;2023-11-19T01:07:01;97355.97;;;-10.94;68.50
49943;BME280;36011;53.362;58.948;2023-11-19T01:10:05;97354.22;;;-10.97;68.46
49943;BME280;36011;53.362;58.948;2023-11-19T01:13:10;97364.22;;;-11.03;68.42
49943;BME280;36011;53.362;58.948;2023-11-19T01:16:14;97347.00;;;-11.13;68.62
49943;BME280;36011;53.362;58.948;2023-11-19T01:19:15;97357.22;;;-11.10;68.61
49943;BME280;36011;53.362;58.948;2023-11-19T01:22:22;97360.53;;;-11.13;68.75
49943;BME280;36011;53.362;58.948;2023-11-19T01:25:24;97380.00;;;-11.15;68.41
49943;BME280;36011;53.362;58.948;2023-11-19T01:28:29;97360.31;;;-11.22;68.47
49943;BME280;36011;53.362;58.948;2023-11-19T01:31:32;97373.84;;;-11.21;68.82
49943;BME280;36011;53.362;58.948;2023-11-19T01:34:35;97370.53;;;-11.20;68.62
49943;BME280;36011;53.362;58.948;2023-11-19T01:37:37;97378.34;;;-11.13;68.48
49943;BME280;36011;53.362;58.948;2023-11-19T01:40:38;97384.47;;;-11.06;68.60
49943;BME280;36011;53.362;58.948;2023-11-19T01:43:42;97385.47;;;-11.01;68.49
49943;BME280;36011;53.362;58.948;2023-11-19T01:46:49;97378.38;;;-10.81;67.63
49943;BME280;36011;53.362;58.948;2023-11-19T01:49:54;97381.69;;;-10.83;67.49
49943;BME280;36011;53.362;58.948;2023-11-19T01:52:59;97377.47;;;-10.81;67.06
49943;BME280;36011;53.362;58.948;2023-11-19T01:56:01;97371.25;;;-10.93;67.19
49943;BME280;36011;53.362;58.948;2023-11-19T01:59:03;97370.84;;;-11.08;67.30
49943;BME280;36011;53.362;58.948;2023-11-19T02:02:05;97384.38;;;-11.09;67.52
49943;BME280;36011;53.362;58.948;2023-11-19T02:05:13;97378.34;;;-11.13;67.64
49943;BME280;36011;53.362;58.948;2023-11-19T02:08:19;97379.53;;;-11.00;67.56
49943;BME280;36011;53.362;58.948;2023-11-19T02:11:24;97386.50;;;-10.93;66.87
49943;BME280;36011;53.362;58.948;2023-11-19T02:14:31;97385.19;;;-11.10;67.40
49943;BME280;36011;53.362;58.948;2023-11-19T02:17:34;97384.69;;;-10.67;66.66
49943;BME280;36011;53.362;58.948;2023-11-19T02:20:38;97402.50;;;-10.65;66.26
49943;BME280;36011;53.362;58.948;2023-11-19T02:23:40;97406.66;;;-10.69;66.46
49943;BME280;36011;53.362;58.948;2023-11-19T02:26:51;97401.56;;;-10.69;66.39
49943;BME280;36011;53.362;58.948;2023-11-19T02:30:00;97410.81;;;-10.72;66.89
49943;BME280;36011;53.362;58.948;2023-11-19T02:33:02;97410.81;;;-10.72;66.96
49943;BME280;36011;53.362;58.948;2023-11-19T02:36:08;97398.41;;;-10.92;67.24
49943;BME280;36011;53.362;58.948;2023-11-19T02:39:12;97399.03;;;-10.99;67.38
49943;BME280;36011;53.362;58.948;2023-11-19T02:42:14;97416.38;;;-10.86;67.93
49943;BME280;36011;53.362;58.948;2023-11-19T02:45:21;97417.13;;;-10.90;67.99
49943;BME280;36011;53.362;58.948;2023-11-19T02:48:30;97408.75;;;-10.84;67.88
49943;BME280;36011;53.362;58.948;2023-11-19T02:51:34;97422.75;;;-10.68;67.60
49943;BME280;36011;53.362;58.948;2023-11-19T02:54:41;97421.75;;;-10.75;67.69
49943;BME280;36011;53.362;58.948;2023-11-19T02:57:45;97421.94;;;-10.67;67.46
49943;BME280;36011;53.362;58.948;2023-11-19T03:00:50;97410.94;;;-10.98;67.68
49943;BME280;36011;53.362;58.948;2023-11-19T03:04:13;97427.53;;;-10.80;67.87
49943;BME280;36011;53.362;58.948;2023-11-19T03:07:20;97421.91;;;-10.69;67.14
49943;BME280;36011;53.362;58.948;2023-11-19T03:10:26;97420.19;;;-10.70;67.17
49943;BME280;36011;53.362;58.948;2023-11-19T03:13:32;97411.47;;;-10.46;66.28
49943;BME280;36011;53.362;58.948;2023-11-19T03:16:39;97417.22;;;-10.53;66.40
49943;BME280;36011;53.362;58.948;2023-11-19T03:19:40;97431.63;;;-10.54;66.16
49943;BME280;36011;53.362;58.948;2023-11-19T03:22:46;97428.16;;;-10.56;66.08
49943;BME280;36011;53.362;58.948;2023-11-19T03:25:51;97428.84;;;-10.62;65.95
49943;BME280;36011;53.362;58.948;2023-11-19T03:28:57;97423.50;;;-10.41;65.48
49943;BME280;36011;53.362;58.948;2023-11-19T03:32:01;97419.72;;;-10.55;65.42
49943;BME280;36011;53.362;58.948;2023-11-19T03:35:05;97430.94;;;-10.78;66.13
49943;BME280;36011;53.362;58.948;2023-11-19T03:38:10;97435.94;;;-10.81;66.66
49943;BME280;36011;53.362;58.948;2023-11-19T03:41:15;97432.09;;;-10.99;67.22
49943;BME280;36011;53.362;58.948;2023-11-19T03:44:22;97433.13;;;-10.92;67.42
49943;BME280;36011;53.362;58.948;2023-11-19T03:47:26;97431.56;;;-10.87;67.78
49943;BME280;36011;53.362;58.948;2023-11-19T03:50:32;97430.53;;;-10.64;67.29
49943;BME280;36011;53.362;58.948;2023-11-19T03:53:35;97433.00;;;-10.65;67.11
49943;BME280;36011;53.362;58.948;2023-11-19T03:56:39;97428.28;;;-10.53;67.14
49943;BME280;36011;53.362;58.948;2023-11-19T03:59:41;97439.19;;;-10.22;66.34
49943;BME280;36011;53.362;58.948;2023-11-19T04:02:47;97425.44;;;-9.96;65.15
49943;BME280;36011;53.362;58.948;2023-11-19T04:05:51;97430.59;;;-9.92;65.13
49943;BME280;36011;53.362;58.948;2023-11-19T04:08:53;97425.31;;;-9.64;64.64
49943;BME280;36011;53.362;58.948;2023-11-19T04:11:54;97423.16;;;-9.47;64.39
49943;BME280;36011;53.362;58.948;2023-11-19T04:14:56;97436.06;;;-9.39;64.29
49943;BME280;36011;53.362;58.948;2023-11-19T04:17:57;97443.06;;;-9.29;63.69
49943;BME280;36011;53.362;58.948;2023-11-19T04:20:59;97448.09;;;-9.32;63.78
49943;BME280;36011;53.362;58.948;2023-11-19T04:24:00;97436.50;;;-9.18;63.14
49943;BME280;36011;53.362;58.948;2023-11-19T04:27:02;97453.19;;;-8.93;61.69
49943;BME280;36011;53.362;58.948;2023-11-19T04:30:08;97448.56;;;-9.11;62.26
49943;BME280;36011;53.362;58.948;2023-11-19T04:33:18;97460.28;;;-9.19;62.22
49943;BME280;36011;53.362;58.948;2023-11-19T04:36:20;97464.72;;;-9.09;61.87
49943;BME280;36011;53.362;58.948;2023-11-19T04:39:27;97458.69;;;-9.14;62.22
49943;BME280;36011;53.362;58.948;2023-11-19T04:42:29;97463.75;;;-9.17;62.70
49943;BME280;36011;53.362;58.948;2023-11-19T04:45:30;97455.22;;;-9.17;63.05
49943;BME280;36011;53.362;58.948;2023-11-19T04:48:35;97445.31;;;-9.04;63.13
49943;BME280;36011;53.362;58.948;2023-11-19T04:51:39;97428.34;;;-9.01;62.81
49943;BME280;36011;53.362;58.948;2023-11-19T04:54:46;97436.19;;;-8.94;61.90
49943;BME280;36011;53.362;58.948;2023-11-19T04:57:54;97450.75;;;-8.88;62.30
49943;BME280;36011;53.362;58.948;2023-11-19T05:00:56;97467.69;;;-8.90;62.24
49943;BME280;36011;53.362;58.948;2023-11-19T05:03:58;97456.34;;;-9.03;62.77
49943;BME280;36011;53.362;58.948;2023-11-19T05:07:03;97461.81;;;-8.86;62.70
49943;BME280;36011;53.362;58.948;2023-11-19T05:10:07;97463.78;;;-8.73;62.80
49943;BME280;36011;53.362;58.948;2023-11-19T05:13:12;97471.31;;;-8.79;62.41
49943;BME280;36011;53.362;58.948;2023-11-19T05:16:18;97469.91;;;-8.65;62.60
49943;BME280;36011;53.362;58.948;2023-11-19T05:19:25;97462.88;;;-8.75;63.23
49943;BME280;36011;53.362;58.948;2023-11-19T05:22:26;97464.69;;;-8.69;63.42
49943;BME280;36011;53.362;58.948;2023-11-19T05:25:29;97476.13;;;-8.50;62.89
49943;BME280;36011;53.362;58.948;2023-11-19T05:28:31;97456.44;;;-8.57;63.47
49943;BME280;36011;53.362;58.948;2023-11-19T05:31:37;97468.38;;;-8.55;63.55
49943;BME280;36011;53.362;58.948;2023-11-19T05:34:41;97471.13;;;-8.46;64.08
49943;BME280;36011;53.362;58.948;2023-11-19T05:37:47;97472.28;;;-8.27;63.24
49943;BME280;36011;53.362;58.948;2023-11-19T05:40:55;97432.22;;;-8.31;62.81
49943;BME280;36011;53.362;58.948;2023-11-19T05:44:01;97472.84;;;-7.96;62.76
49943;BME280;36011;53.362;58.948;2023-11-19T05:47:03;97475.47;;;-7.92;62.26
49943;BME280;36011;53.362;58.948;2023-11-19T05:50:05;97475.63;;;-7.82;62.91
49943;BME280;36011;53.362;58.948;2023-11-19T05:53:10;97481.69;;;-7.76;62.06
49943;BME280;36011;53.362;58.948;2023-11-19T05:56:14;97476.88;;;-7.57;61.75
49943;BME280;36011;53.362;58.948;2023-11-19T05:59:19;97502.53;;;-7.51;61.05
49943;BME280;36011;53.362;58.948;2023-11-19T06:02:23;97501.63;;;-7.55;61.65
49943;BME280;36011;53.362;58.948;2023-11-19T06:05:26;97495.19;;;-7.33;60.60
49943;BME280;36011;53.362;58.948;2023-11-19T06:08:30;97506.44;;;-7.21;60.02
49943;BME280;36011;53.362;58.948;2023-11-19T06:11:37;97504.59;;;-7.29;59.81
49943;BME280;36011;53.362;58.948;2023-11-19T06:14:42;97517.59;;;-7.15;58.93
49943;BME280;36011;53.362;58.948;2023-11-19T06:17:43;97520.31;;;-7.03;58.80
49943;BME280;36011;53.362;58.948;2023-11-19T06:20:45;97520.44;;;-6.95;58.76
49943;BME280;36011;53.362;58.948;2023-11-19T06:23:49;97518.81;;;-6.90;58.92
49943;BME280;36011;53.362;58.948;2023-11-19T06:26:52;97525.78;;;-6.77;57.27
49943;BME280;36011;53.362;58.948;2023-11-19T06:29:54;97530.28;;;-6.62;57.75
49943;BME280;36011;53.362;58.948;2023-11-19T06:32:59;97543.66;;;-3.08;54.69
49943;BME280;36011;53.362;58.948;2023-11-19T06:36:04;97537.66;;;1.03;45.96
49943;BME280;36011;53.362;58.948;2023-11-19T06:39:11;97520.31;;;3.14;39.28
49943;BME280;36011;53.362;58.948;2023-11-19T06:42:14;97535.88;;;5.27;36.47
49943;BME280;36011;53.362;58.948;2023-11-19T06:45:18;97519.88;;;6.58;35.18
49943;BME280;36011;53.362;58.948;2023-11-19T06:48:19;97527.19;;;8.18;33.86
49943;BME280;36011;53.362;58.948;2023-11-19T06:51:23;97532.63;;;8.72;31.70
49943;BME280;36011;53.362;58.948;2023-11-19T06:54:25;97526.16;;;9.52;30.14
49943;BME280;36011;53.362;58.948;2023-11-19T06:57:27;97542.97;;;10.98;30.81
49943;BME280;36011;53.362;58.948;2023-11-19T07:00:30;97538.97;;;13.39;30.30
49943;BME280;36011;53.362;58.948;2023-11-19T07:03:37;97546.75;;;13.95;26.98
49943;BME280;36011;53.362;58.948;2023-11-19T07:06:39;97549.84;;;14.65;26.37
49943;BME280;36011;53.362;58.948;2023-11-19T07:09:49;97543.72;;;15.25;24.87
49943;BME280;36011;53.362;58.948;2023-11-19T07:12:57;97539.31;;;16.43;24.74
49943;BME280;36011;53.362;58.948;2023-11-19T07:15:58;97538.75;;;17.39;23.36
49943;BME280;36011;53.362;58.948;2023-11-19T07:19:05;97530.63;;;17.84;22.67
49943;BME280;36011;53.362;58.948;2023-11-19T07:22:12;97537.78;;;18.05;19.56
49943;BME280;36011;53.362;58.948;2023-11-19T07:25:19;97542.56;;;18.11;20.04
49943;BME280;36011;53.362;58.948;2023-11-19T07:28:25;97534.06;;;18.38;19.76
49943;BME280;36011;53.362;58.948;2023-11-19T07:31:31;97534.19;;;18.67;18.80
49943;BME280;36011;53.362;58.948;2023-11-19T07:34:38;97536.59;;;19.01;19.42
49943;BME280;36011;53.362;58.948;2023-11-19T07:37:45;97534.56;;;18.83;18.95
49943;BME280;36011;53.362;58.948;2023-11-19T07:40:51;97535.59;;;19.91;17.69
49943;BME280;36011;53.362;58.948;2023-11-19T07:43:55;97524.88;;;19.42;17.43
49943;BME280;36011;53.362;58.948;2023-11-19T07:46:57;97529.25;;;19.34;17.24
49943;BME280;36011;53.362;58.948;2023-11-19T07:49:59;97533.88;;;19.51;17.72
49943;BME280;36011;53.362;58.948;2023-11-19T07:53:01;97547.63;;;20.53;17.45
49943;BME280;36011;53.362;58.948;2023-11-19T07:56:05;97538.59;;;21.65;17.01
49943;BME280;36011;53.362;58.948;2023-11-19T07:59:10;97537.78;;;22.78;16.79
49943;BME280;36011;53.362;58.948;2023-11-19T08:02:14;97535.38;;;23.52;16.17
49943;BME280;36011;53.362;58.948;2023-11-19T08:05:18;97530.75;;;22.77;14.08
49943;BME280;36011;53.362;58.948;2023-11-19T08:08:22;97533.13;;;22.54;15.39
49943;BME280;36011;53.362;58.948;2023-11-19T08:11:29;97533.09;;;22.20;14.50
49943;BME280;36011;53.362;58.948;2023-11-19T08:14:37;97533.84;;;21.59;15.30
49943;BME280;36011;53.362;58.948;2023-11-19T08:17:43;97528.34;;;21.78;14.77
49943;BME280;36011;53.362;58.948;2023-11-19T08:20:48;97523.94;;;22.31;14.82
49943;BME280;36011;53.362;58.948;2023-11-19T08:23:59;97535.81;;;22.54;14.43
49943;BME280;36011;53.362;58.948;2023-11-19T08:27:03;97541.03;;;21.76;13.80
49943;BME280;36011;53.362;58.948;2023-11-19T08:30:07;97543.06;;;21.74;14.26
49943;BME280;36011;53.362;58.948;2023-11-19T08:33:10;97550.13;;;22.19;13.80
49943;BME280;36011;53.362;58.948;2023-11-19T08:36:19;97549.25;;;22.89;13.10
49943;BME280;36011;53.362;58.948;2023-11-19T08:39:21;97545.88;;;23.80;13.01
49943;BME280;36011;53.362;58.948;2023-11-19T08:42:25;97546.84;;;23.62;13.15
49943;BME280;36011;53.362;58.948;2023-11-19T08:45:30;97545.56;;;24.24;12.94
49943;BME280;36011;53.362;58.948;2023-11-19T08:48:32;97549.50;;;24.85;12.57
49943;BME280;36011;53.362;58.948;2023-11-19T08:51:34;97548.28;;;25.04;12.53
49943;BME280;36011;53.362;58.948;2023-11-19T08:54:35;97529.38;;;25.12;12.35
49943;BME280;36011;53.362;58.948;2023-11-19T08:57:38;97548.50;;;24.86;11.96
49943;BME280;36011;53.362;58.948;2023-11-19T09:00:42;97546.84;;;23.62;12.13
49943;BME280;36011;53.362;58.948;2023-11-19T09:03:48;97552.00;;;22.18;12.99
49943;BME280;36011;53.362;58.948;2023-11-19T09:06:52;97544.03;;;21.91;13.02
49943;BME280;36011;53.362;58.948;2023-11-19T09:09:58;97543.81;;;22.20;13.25
49943;BME280;36011;53.362;58.948;2023-11-19T09:13:02;97545.91;;;22.34;12.86
49943;BME280;36011;53.362;58.948;2023-11-19T09:16:06;97552.28;;;22.59;12.87
49943;BME280;36011;53.362;58.948;2023-11-19T09:19:11;97553.69;;;21.66;13.01
49943;BME280;36011;53.362;58.948;2023-11-19T09:22:21;97562.94;;;20.98;13.33
49943;BME280;36011;53.362;58.948;2023-11-19T09:25:26;97570.25;;;20.96;13.31
49943;BME280;36011;53.362;58.948;2023-11-19T09:28:27;97570.72;;;21.65;13.32
49943;BME280;36011;53.362;58.948;2023-11-19T09:31:29;97581.63;;;22.17;12.94
49943;BME280;36011;53.362;58.948;2023-11-19T09:34:35;97586.72;;;22.72;13.85
49943;BME280;36011;53.362;58.948;2023-11-19T09:37:39;97564.00;;;21.61;13.32
49943;BME280;36011;53.362;58.948;2023-11-19T09:40:43;97565.63;;;20.98;13.45
49943;BME280;36011;53.362;58.948;2023-11-19T09:43:45;97564.22;;;20.47;13.87
49943;BME280;36011;53.362;58.948;2023-11-19T09:46:46;97567.06;;;20.16;13.75
49943;BME280;36011;53.362;58.948;2023-11-19T09:49:54;97558.66;;;19.92;13.93
49943;BME280;36011;53.362;58.948;2023-11-19T09:52:58;97557.59;;;19.35;14.08
49943;BME280;36011;53.362;58.948;2023-11-19T09:56:08;97543.69;;;19.41;13.77
49943;BME280;36011;53.362;58.948;2023-11-19T09:59:14;97527.81;;;18.79;13.98
49943;BME280;36011;53.362;58.948;2023-11-19T10:02:21;97533.91;;;17.44;14.27
49943;BME280;36011;53.362;58.948;2023-11-19T10:05:25;97519.03;;;16.76;14.48
49943;BME280;36011;53.362;58.948;2023-11-19T10:08:32;97536.75;;;16.30;14.85
49943;BME280;36011;53.362;58.948;2023-11-19T10:11:38;97536.56;;;15.87;15.08
49943;BME280;36011;53.362;58.948;2023-11-19T10:14:41;97530.19;;;15.65;15.20
49943;BME280;36011;53.362;58.948;2023-11-19T10:17:46;97530.34;;;14.41;15.85
49943;BME280;36011;53.362;58.948;2023-11-19T10:20:53;97523.94;;;11.24;17.96
49943;BME280;36011;53.362;58.948;2023-11-19T10:23:57;97521.88;;;8.20;20.59
49943;BME280;36011;53.362;58.948;2023-11-19T10:27:06;97532.19;;;6.09;22.87
49943;BME280;36011;53.362;58.948;2023-11-19T10:30:12;97541.59;;;4.55;24.48
49943;BME280;36011;53.362;58.948;2023-11-19T10:33:14;97528.22;;;3.44;25.75
49943;BME280;36011;53.362;58.948;2023-11-19T10:36:25;97531.94;;;2.62;27.01
49943;BME280;36011;53.362;58.948;2023-11-19T10:39:54;97535.09;;;1.96;27.42
49943;BME280;36011;53.362;58.948;2023-11-19T10:43:05;97532.63;;;1.45;28.62
49943;BME280;36011;53.362;58.948;2023-11-19T10:46:11;97538.38;;;1.11;29.29
49943;BME280;36011;53.362;58.948;2023-11-19T10:49:13;97546.50;;;0.89;29.02
49943;BME280;36011;53.362;58.948;2023-11-19T10:52:20;97542.50;;;0.69;29.61
49943;BME280;36011;53.362;58.948;2023-11-19T10:55:31;97556.59;;;0.48;29.81
49943;BME280;36011;53.362;58.948;2023-11-19T10:58:44;97561.25;;;0.22;30.81
49943;BME280;36011;53.362;58.948;2023-11-19T11:01:51;97560.56;;;0.10;30.20
49943;BME280;36011;53.362;58.948;2023-11-19T11:04:57;97553.13;;;-0.16;30.07
49943;BME280;36011;53.362;58.948;2023-11-19T11:08:09;97567.78;;;-0.17;31.11
49943;BME280;36011;53.362;58.948;2023-11-19T11:11:13;97564.50;;;-0.34;31.06
49943;BME280;36011;53.362;58.948;2023-11-19T11:14:22;97565.63;;;-0.60;31.19
49943;BME280;36011;53.362;58.948;2023-11-19T11:17:28;97567.47;;;-0.73;31.22
49943;BME280;36011;53.362;58.948;2023-11-19T11:20:35;97564.06;;;-0.79;31.24
49943;BME280;36011;53.362;58.948;2023-11-19T11:27:15;97576.31;;;-1.00;31.48
49943;BME280;36011;53.362;58.948;2023-11-19T11:30:31;97577.28;;;-1.16;31.65
49943;BME280;36011;53.362;58.948;2023-11-19T11:40:32;97585.25;;;-1.48;32.06
49943;BME280;36011;53.362;58.948;2023-11-19T11:43:47;97593.97;;;-1.69;32.79
49943;BME280;36011;53.362;58.948;2023-11-19T11:46:58;97576.03;;;-2.00;33.11
49943;BME280;36011;53.362;58.948;2023-11-19T11:50:17;97584.66;;;-2.13;33.95
49943;BME280;36011;53.362;58.948;2023-11-19T11:53:23;97591.59;;;-2.28;33.85
49943;BME280;36011;53.362;58.948;2023-11-19T11:56:35;97571.84;;;-2.41;34.41
49943;BME280;36011;53.362;58.948;2023-11-19T11:59:45;97577.00;;;-2.41;34.54
49943;BME280;36011;53.362;58.948;2023-11-19T12:02:48;97584.78;;;-2.53;34.77
49943;BME280;36011;53.362;58.948;2023-11-19T12:05:52;97588.25;;;-2.71;34.92
49943;BME280;36011;53.362;58.948;2023-11-19T12:09:02;97598.56;;;-2.88;35.64
49943;BME280;36011;53.362;58.948;2023-11-19T12:15:18;97605.38;;;-3.24;35.96
49943;BME280;36011;53.362;58.948;2023-11-19T12:18:20;97607.09;;;-3.32;36.63
49943;BME280;36011;53.362;58.948;2023-11-19T12:21:32;97618.19;;;-3.59;37.27
49943;BME280;36011;53.362;58.948;2023-11-19T12:24:37;97619.00;;;-3.78;37.87
49943;BME280;36011;53.362;58.948;2023-11-19T12:27:43;97613.78;;;-3.92;38.32
49943;BME280;36011;53.362;58.948;2023-11-19T12:30:48;97614.59;;;-3.99;38.32
49943;BME280;36011;53.362;58.948;2023-11-19T12:33:50;97621.44;;;-4.03;38.26
49943;BME280;36011;53.362;58.948;2023-11-19T12:36:54;97614.53;;;-4.15;38.77
49943;BME280;36011;53.362;58.948;2023-11-19T12:39:58;97624.78;;;-4.24;39.29
49943;BME280;36011;53.362;58.948;2023-11-19T12:43:02;97612.69;;;-4.37;39.68
49943;BME280;36011;53.362;58.948;2023-11-19T12:46:20;97624.88;;;-4.02;38.80
49943;BME280;36011;53.362;58.948;2023-11-19T12:49:24;97632.44;;;-4.32;39.49
49943;BME280;36011;53.362;58.948;2023-11-19T12:52:30;97638.41;;;-4.37;39.16
49943;BME280;36011;53.362;58.948;2023-11-19T12:55:34;97634.13;;;-4.35;39.06
49943;BME280;36011;53.362;58.948;2023-11-19T12:58:41;97642.66;;;-4.39;39.10
49943;BME280;36011;53.362;58.948;2023-11-19T13:01:57;97648.69;;;-4.34;39.58
49943;BME280;36011;53.362;58.948;2023-11-19T13:05:34;97652.06;;;-4.40;39.66
49943;BME280;36011;53.362;58.948;2023-11-19T13:08:45;97650.25;;;-4.56;39.66
49943;BME280;36011;53.362;58.948;2023-11-19T13:11:50;97648.47;;;-4.69;39.77
49943;BME280;36011;53.362;58.948;2023-11-19T13:14:52;97633.78;;;-4.81;39.81
49943;BME280;36011;53.362;58.948;2023-11-19T13:17:57;97651.75;;;-4.86;39.95
49943;BME280;36011;53.362;58.948;2023-11-19T13:21:00;97653.34;;;-4.97;40.20
49943;BME280;36011;53.362;58.948;2023-11-19T13:24:06;97669.53;;;-5.06;40.90
49943;BME280;36011;53.362;58.948;2023-11-19T13:27:13;97666.88;;;-5.16;40.54
49943;BME280;36011;53.362;58.948;2023-11-19T13:30:15;97673.81;;;-5.06;40.70
49943;BME280;36011;53.362;58.948;2023-11-19T13:33:20;97684.06;;;-5.09;40.50
49943;BME280;36011;53.362;58.948;2023-11-19T13:36:26;97678.75;;;-5.25;41.03
49943;BME280;36011;53.362;58.948;2023-11-19T13:39:41;97692.28;;;-5.39;41.12
49943;BME280;36011;53.362;58.948;2023-11-19T13:42:47;97670.94;;;-5.35;41.29
49943;BME280;36011;53.362;58.948;2023-11-19T13:45:48;97688.88;;;-5.35;41.20
49943;BME280;36011;53.362;58.948;2023-11-19T13:48:49;97644.16;;;-5.60;40.89
49943;BME280;36011;53.362;58.948;2023-11-19T13:51:54;97696.53;;;-5.42;41.13
49943;BME280;36011;53.362;58.948;2023-11-19T13:55:01;97693.13;;;-5.40;41.65
49943;BME280;36011;53.362;58.948;2023-11-19T13:58:07;97691.41;;;-5.42;41.72
49943;BME280;36011;53.362;58.948;2023-11-19T14:01:14;97681.03;;;-5.51;41.40
49943;BME280;36011;53.362;58.948;2023-11-19T14:04:20;97692.31;;;-5.36;41.91
49943;BME280;36011;53.362;58.948;2023-11-19T14:07:23;97694.84;;;-5.39;41.84
49943;BME280;36011;53.362;58.948;2023-11-19T14:10:24;97689.53;;;-5.55;42.24
49943;BME280;36011;53.362;58.948;2023-11-19T14:13:28;97691.06;;;-5.69;42.41
49943;BME280;36011;53.362;58.948;2023-11-19T14:16:33;97689.31;;;-5.73;42.48
49943;BME280;36011;53.362;58.948;2023-11-19T14:19:38;97702.03;;;-5.82;42.80
49943;BME280;36011;53.362;58.948;2023-11-19T14:22:44;97695.94;;;-5.91;42.84
49943;BME280;36011;53.362;58.948;2023-11-19T14:25:48;97694.19;;;-5.92;42.95
49943;BME280;36011;53.362;58.948;2023-11-19T14:28:54;97701.19;;;-5.81;42.82
49943;BME280;36011;53.362;58.948;2023-11-19T14:31:56;97701.31;;;-5.69;42.63
49943;BME280;36011;53.362;58.948;2023-11-19T14:34:58;97706.38;;;-5.75;42.76
49943;BME280;36011;53.362;58.948;2023-11-19T14:38:00;97680.41;;;-6.03;42.93
49943;BME280;36011;53.362;58.948;2023-11-19T14:41:03;97699.19;;;-6.04;42.57
49943;BME280;36011;53.362;58.948;2023-11-19T14:44:11;97693.19;;;-6.07;42.42
49943;BME280;36011;53.362;58.948;2023-11-19T14:47:14;97687.00;;;-6.20;42.93
49943;BME280;36011;53.362;58.948;2023-11-19T14:50:16;97694.81;;;-6.13;43.10
49943;BME280;36011;53.362;58.948;2023-11-19T14:53:18;97690.28;;;-6.32;43.26
49943;BME280;36011;53.362;58.948;2023-11-19T14:56:21;97697.91;;;-6.37;42.80
49943;BME280;36011;53.362;58.948;2023-11-19T14:59:25;97703.72;;;-6.47;44.14
49943;BME280;36011;53.362;58.948;2023-11-19T15:02:29;97703.81;;;-6.41;43.76
49943;BME280;36011;53.362;58.948;2023-11-19T15:05:33;97707.34;;;-6.33;43.36
49943;BME280;36011;53.362;58.948;2023-11-19T15:08:37;97700.72;;;-6.18;43.53
49943;BME280;36011;53.362;58.948;2023-11-19T15:11:45;97716.25;;;-6.07;43.51
49943;BME280;36011;53.362;58.948;2023-11-19T15:14:53;97698.81;;;-6.32;43.55
49943;BME280;36011;53.362;58.948;2023-11-19T15:17:56;97698.31;;;-6.64;43.95
49943;BME280;36011;53.362;58.948;2023-11-19T15:21:02;97695.69;;;-6.70;43.72
49943;BME280;36011;53.362;58.948;2023-11-19T15:24:07;97703.25;;;-6.76;44.38
49943;BME280;36011;53.362;58.948;2023-11-19T15:27:11;97699.13;;;-6.66;44.01
49943;BME280;36011;53.362;58.948;2023-11-19T15:30:14;97691.47;;;-6.66;44.21
49943;BME280;36011;53.362;58.948;2023-11-19T15:33:19;97706.88;;;-6.63;43.80
49943;BME280;36011;53.362;58.948;2023-11-19T15:36:20;97706.78;;;-6.69;43.60
49943;BME280;36011;53.362;58.948;2023-11-19T15:39:29;97719.66;;;-6.63;43.85
49943;BME280;36011;53.362;58.948;2023-11-19T15:42:35;97721.19;;;-6.74;44.14
49943;BME280;36011;53.362;58.948;2023-11-19T15:45:39;97714.25;;;-6.80;44.29
49943;BME280;36011;53.362;58.948;2023-11-19T15:48:40;97722.19;;;-6.66;44.81
49943;BME280;36011;53.362;58.948;2023-11-19T15:51:42;97725.63;;;-6.64;44.79
49943;BME280;36011;53.362;58.948;2023-11-19T15:54:49;97719.22;;;-6.89;45.60
49943;BME280;36011;53.362;58.948;2023-11-19T15:57:53;97721.59;;;-7.00;45.82
49943;BME280;36011;53.362;58.948;2023-11-19T16:00:58;97725.84;;;-7.01;45.51
49943;BME280;36011;53.362;58.948;2023-11-19T16:04:01;97722.75;;;-6.84;45.62
49943;BME280;36011;53.362;58.948;2023-11-19T16:07:05;97735.28;;;-6.96;45.26
49943;BME280;36011;53.362;58.948;2023-11-19T16:10:06;97735.63;;;-6.77;45.32
49943;BME280;36011;53.362;58.948;2023-11-19T16:13:14;97740.56;;;-6.89;45.45
49943;BME280;36011;53.362;58.948;2023-11-19T16:16:16;97747.28;;;-6.94;45.54
49943;BME280;36011;53.362;58.948;2023-11-19T16:19:20;97751.00;;;-6.77;45.30